Aviation Digital Data Service (ADDS)

Output produced by METARs form (1509 UTC 20 March 2019)
found at http://www.aviationweather.gov/metar/data/
 
Forecast for: EDDR (SAARBRUECKEN , DE)
Text: TAF EDDR 201100Z 2012/2112 06005KT CAVOK
Forecast period: 1200 UTC 20 March 2019 to 1200 UTC 21 March 2019
Forecast type: FROM: standard forecast or significant change
Winds: from the ENE (60 degrees) at 6 MPH (5 knots; 2.6 m/s)
Visibility: 6 or more miles 10+ km)
Ceiling: unknown
Clouds: missing
Weather: NSW  (no significant weather)
Text: TEMPO 2109/2112 06010KT
Forecast period: 0900 to 1200 UTC 21 March 2019
Forecast type: TEMPORARY: The following changes expected for less than half the time period
Winds: from the ENE (60 degrees) at 12 MPH (10 knots; 5.1 m/s)
Visibility: missing
Ceiling: unknown
Clouds: missing
Weather: no significant weather forecast for this period